sensor_id;sensor_type;location;lat;lon;timestamp;temperature;humidity
37998;DHT22;24079;51.824;4.682;2023-03-17T08:33:07;13.80;99.90
37998;DHT22;24079;51.824;4.682;2023-03-17T08:35:34;13.70;99.90
37998;DHT22;24079;51.824;4.682;2023-03-17T08:38:00;13.80;99.90
37998;DHT22;24079;51.824;4.682;2023-03-17T08:40:27;13.90;99.90
37998;DHT22;24079;51.824;4.682;2023-03-17T08:42:53;13.90;99.90
37998;DHT22;24079;51.824;4.682;2023-03-17T08:45:19;14.00;99.90
37998;DHT22;24079;51.824;4.682;2023-03-17T08:47:46;13.90;99.90
37998;DHT22;24079;51.824;4.682;2023-03-17T08:50:19;14.00;99.90
37998;DHT22;24079;51.824;4.682;2023-03-17T08:52:46;14.00;99.90
37998;DHT22;24079;51.824;4.682;2023-03-17T08:55:14;13.90;99.90
37998;DHT22;24079;51.824;4.682;2023-03-17T08:57:41;13.80;99.90
37998;DHT22;24079;51.824;4.682;2023-03-17T09:00:08;13.70;99.90
37998;DHT22;24079;51.824;4.682;2023-03-17T09:02:37;13.80;99.90
37998;DHT22;24079;51.824;4.682;2023-03-17T09:05:05;13.90;99.90
37998;DHT22;24079;51.824;4.682;2023-03-17T09:07:32;13.90;99.90
37998;DHT22;24079;51.824;4.682;2023-03-17T09:09:59;14.00;99.90
37998;DHT22;24079;51.824;4.682;2023-03-17T09:12:25;13.90;99.90
37998;DHT22;24079;51.824;4.682;2023-03-17T09:14:51;13.80;99.90
37998;DHT22;24079;51.824;4.682;2023-03-17T09:17:18;13.80;99.90
37998;DHT22;24079;51.824;4.682;2023-03-17T09:19:44;13.80;99.90
37998;DHT22;24079;51.824;4.682;2023-03-17T09:22:14;13.90;99.90
37998;DHT22;24079;51.824;4.682;2023-03-17T09:24:41;14.00;99.90
37998;DHT22;24079;51.824;4.682;2023-03-17T09:27:07;14.10;99.90
37998;DHT22;24079;51.824;4.682;2023-03-17T09:29:33;14.20;99.90
37998;DHT22;24079;51.824;4.682;2023-03-17T09:31:59;14.60;99.90
37998;DHT22;24079;51.824;4.682;2023-03-17T09:34:26;14.80;99.90
37998;DHT22;24079;51.824;4.682;2023-03-17T09:36:52;14.90;99.90
37998;DHT22;24079;51.824;4.682;2023-03-17T09:39:19;14.90;99.90
37998;DHT22;24079;51.824;4.682;2023-03-17T09:44:34;15.10;99.90
37998;DHT22;24079;51.824;4.682;2023-03-17T09:49:47;15.10;99.90
37998;DHT22;24079;51.824;4.682;2023-03-17T09:52:15;15.10;99.90
37998;DHT22;24079;51.824;4.682;2023-03-17T09:54:44;15.10;99.90
37998;DHT22;24079;51.824;4.682;2023-03-17T10:00:15;14.80;99.90
37998;DHT22;24079;51.824;4.682;2023-03-17T10:02:43;14.60;99.90
37998;DHT22;24079;51.824;4.682;2023-03-17T10:05:22;14.40;99.90
37998;DHT22;24079;51.824;4.682;2023-03-17T10:08:14;14.40;99.90
37998;DHT22;24079;51.824;4.682;2023-03-17T10:10:48;14.60;99.90
37998;DHT22;24079;51.824;4.682;2023-03-17T10:16:18;14.90;99.90
37998;DHT22;24079;51.824;4.682;2023-03-17T10:18:54;14.80;99.90
37998;DHT22;24079;51.824;4.682;2023-03-17T10:21:26;14.80;99.90
37998;DHT22;24079;51.824;4.682;2023-03-17T10:23:53;14.90;99.90
37998;DHT22;24079;51.824;4.682;2023-03-17T10:26:38;14.80;99.90
37998;DHT22;24079;51.824;4.682;2023-03-17T10:29:18;15.00;99.90
37998;DHT22;24079;51.824;4.682;2023-03-17T10:31:47;15.00;99.90
37998;DHT22;24079;51.824;4.682;2023-03-17T10:34:21;14.90;99.90
37998;DHT22;24079;51.824;4.682;2023-03-17T10:36:52;14.90;99.90
37998;DHT22;24079;51.824;4.682;2023-03-17T10:39:22;15.10;99.90
37998;DHT22;24079;51.824;4.682;2023-03-17T10:42:06;15.00;99.90
37998;DHT22;24079;51.824;4.682;2023-03-17T10:44:38;15.10;99.90
37998;DHT22;24079;51.824;4.682;2023-03-17T10:47:05;15.20;99.90
37998;DHT22;24079;51.824;4.682;2023-03-17T10:49:35;15.20;99.90
37998;DHT22;24079;51.824;4.682;2023-03-17T10:52:06;14.90;99.90
37998;DHT22;24079;51.824;4.682;2023-03-17T10:54:34;14.70;99.90
37998;DHT22;24079;51.824;4.682;2023-03-17T10:57:04;14.60;99.90
37998;DHT22;24079;51.824;4.682;2023-03-17T10:59:37;14.70;99.90
37998;DHT22;24079;51.824;4.682;2023-03-17T11:02:25;15.00;99.90
37998;DHT22;24079;51.824;4.682;2023-03-17T11:05:06;15.30;99.90
37998;DHT22;24079;51.824;4.682;2023-03-17T11:07:38;15.40;99.90
37998;DHT22;24079;51.824;4.682;2023-03-17T11:10:21;15.60;99.90
37998;DHT22;24079;51.824;4.682;2023-03-17T11:12:59;15.80;99.90
37998;DHT22;24079;51.824;4.682;2023-03-17T11:15:34;16.00;99.90
37998;DHT22;24079;51.824;4.682;2023-03-17T11:18:05;16.10;99.90
37998;DHT22;24079;51.824;4.682;2023-03-17T11:21:37;16.00;99.90
37998;DHT22;24079;51.824;4.682;2023-03-17T11:24:05;16.10;99.90
37998;DHT22;24079;51.824;4.682;2023-03-17T11:32:10;16.40;99.90
37998;DHT22;24079;51.824;4.682;2023-03-17T11:37:47;16.60;99.90
37998;DHT22;24079;51.824;4.682;2023-03-17T11:40:28;16.80;99.90
37998;DHT22;24079;51.824;4.682;2023-03-17T11:46:08;16.90;99.90
37998;DHT22;24079;51.824;4.682;2023-03-17T11:49:02;16.90;99.90
37998;DHT22;24079;51.824;4.682;2023-03-17T11:54:36;17.10;99.90
37998;DHT22;24079;51.824;4.682;2023-03-17T11:57:11;17.20;99.90
37998;DHT22;24079;51.824;4.682;2023-03-17T11:59:53;17.10;99.90
37998;DHT22;24079;51.824;4.682;2023-03-17T12:02:39;17.10;99.90
37998;DHT22;24079;51.824;4.682;2023-03-17T12:05:11;17.20;99.90
37998;DHT22;24079;51.824;4.682;2023-03-17T12:08:03;17.20;99.90
37998;DHT22;24079;51.824;4.682;2023-03-17T12:10:35;17.10;99.90
37998;DHT22;24079;51.824;4.682;2023-03-17T12:16:59;17.20;99.90
37998;DHT22;24079;51.824;4.682;2023-03-17T12:19:32;17.00;99.90
37998;DHT22;24079;51.824;4.682;2023-03-17T12:22:25;16.90;99.90
37998;DHT22;24079;51.824;4.682;2023-03-17T12:27:57;16.80;99.90
37998;DHT22;24079;51.824;4.682;2023-03-17T12:30:52;16.80;99.90
37998;DHT22;24079;51.824;4.682;2023-03-17T12:36:11;17.00;99.90
37998;DHT22;24079;51.824;4.682;2023-03-17T12:39:00;17.00;99.90
37998;DHT22;24079;51.824;4.682;2023-03-17T12:44:25;17.00;99.90
37998;DHT22;24079;51.824;4.682;2023-03-17T12:52:39;17.00;99.90
37998;DHT22;24079;51.824;4.682;2023-03-17T12:55:12;17.00;99.90
37998;DHT22;24079;51.824;4.682;2023-03-17T12:57:41;17.10;99.90
37998;DHT22;24079;51.824;4.682;2023-03-17T13:00:27;17.10;99.90
37998;DHT22;24079;51.824;4.682;2023-03-17T13:05:38;17.40;99.90
37998;DHT22;24079;51.824;4.682;2023-03-17T13:08:43;17.60;99.90
37998;DHT22;24079;51.824;4.682;2023-03-17T13:13:56;17.80;99.90
37998;DHT22;24079;51.824;4.682;2023-03-17T13:16:33;17.70;99.90
37998;DHT22;24079;51.824;4.682;2023-03-17T13:19:23;17.60;99.90
37998;DHT22;24079;51.824;4.682;2023-03-17T13:21:58;17.50;99.90
37998;DHT22;24079;51.824;4.682;2023-03-17T13:27:11;17.30;99.90
37998;DHT22;24079;51.824;4.682;2023-03-17T13:29:41;17.30;99.90
37998;DHT22;24079;51.824;4.682;2023-03-17T13:40:34;17.90;99.90
37998;DHT22;24079;51.824;4.682;2023-03-17T13:49:03;18.50;99.90
37998;DHT22;24079;51.824;4.682;2023-03-17T13:51:38;18.50;99.90
37998;DHT22;24079;51.824;4.682;2023-03-17T13:54:27;18.70;99.90
37998;DHT22;24079;51.824;4.682;2023-03-17T14:02:18;18.90;99.90
37998;DHT22;24079;51.824;4.682;2023-03-17T14:04:54;18.70;99.90
37998;DHT22;24079;51.824;4.682;2023-03-17T14:07:24;18.40;99.90
37998;DHT22;24079;51.824;4.682;2023-03-17T14:09:55;18.30;99.90
37998;DHT22;24079;51.824;4.682;2023-03-17T14:12:42;18.40;99.90
37998;DHT22;24079;51.824;4.682;2023-03-17T14:15:26;18.50;99.90
37998;DHT22;24079;51.824;4.682;2023-03-17T14:17:57;18.50;99.90
37998;DHT22;24079;51.824;4.682;2023-03-17T14:20:25;18.60;99.90
37998;DHT22;24079;51.824;4.682;2023-03-17T14:23:00;18.60;99.90
37998;DHT22;24079;51.824;4.682;2023-03-17T14:25:40;18.70;99.90
37998;DHT22;24079;51.824;4.682;2023-03-17T14:28:09;18.70;99.90
37998;DHT22;24079;51.824;4.682;2023-03-17T14:30:38;18.60;99.90
37998;DHT22;24079;51.824;4.682;2023-03-17T14:33:22;18.60;99.90
37998;DHT22;24079;51.824;4.682;2023-03-17T14:35:52;18.60;99.90
37998;DHT22;24079;51.824;4.682;2023-03-17T14:38:27;18.50;99.90
37998;DHT22;24079;51.824;4.682;2023-03-17T14:43:38;18.30;99.90
37998;DHT22;24079;51.824;4.682;2023-03-17T14:46:06;18.30;99.90
37998;DHT22;24079;51.824;4.682;2023-03-17T14:48:40;18.20;99.90
37998;DHT22;24079;51.824;4.682;2023-03-17T14:51:18;18.20;99.90
37998;DHT22;24079;51.824;4.682;2023-03-17T14:53:50;18.10;99.90
37998;DHT22;24079;51.824;4.682;2023-03-17T14:56:23;18.00;99.90
37998;DHT22;24079;51.824;4.682;2023-03-17T14:58:52;18.00;99.90
37998;DHT22;24079;51.824;4.682;2023-03-17T15:01:41;18.00;99.90
37998;DHT22;24079;51.824;4.682;2023-03-17T15:04:17;17.90;99.90
37998;DHT22;24079;51.824;4.682;2023-03-17T15:06:52;17.90;99.90
37998;DHT22;24079;51.824;4.682;2023-03-17T15:09:35;17.90;99.90
37998;DHT22;24079;51.824;4.682;2023-03-17T15:12:05;17.90;99.90
37998;DHT22;24079;51.824;4.682;2023-03-17T15:14:45;18.00;99.90
